createdAt,value
2023-09-27T00:00:36.981Z,13.38
2023-09-27T00:05:41.215Z,13.25
2023-09-27T00:10:45.293Z,13.12
2023-09-27T00:15:49.450Z,12.96
2023-09-27T00:20:53.597Z,12.94
2023-09-27T00:25:57.802Z,12.87
2023-09-27T00:31:01.922Z,12.82
2023-09-27T00:36:06.120Z,12.98
2023-09-27T00:41:10.259Z,12.83
2023-09-27T00:46:14.449Z,12.75
2023-09-27T00:51:18.579Z,12.65
2023-09-27T00:56:22.777Z,12.73
2023-09-27T01:01:26.930Z,12.61
2023-09-27T01:06:31.014Z,12.57
2023-09-27T01:11:35.239Z,12.43
2023-09-27T01:16:39.491Z,12.38
2023-09-27T01:21:43.543Z,12.45
2023-09-27T01:26:47.665Z,12.48
2023-09-27T01:31:51.978Z,12.47
2023-09-27T01:36:55.994Z,12.40
2023-09-27T01:42:00.221Z,12.29
2023-09-27T01:47:04.413Z,12.24
2023-09-27T01:52:08.523Z,12.30
2023-09-27T01:57:12.694Z,12.28
2023-09-27T02:02:16.882Z,12.25
2023-09-27T02:07:19.075Z,12.18
2023-09-27T02:12:23.259Z,12.05
2023-09-27T02:17:27.560Z,12.06
2023-09-27T02:22:31.562Z,12.10
2023-09-27T02:27:35.734Z,12.13
2023-09-27T02:32:39.968Z,12.10
2023-09-27T02:37:44.091Z,12.08
2023-09-27T02:42:48.289Z,12.02
2023-09-27T02:47:52.422Z,11.95
2023-09-27T02:52:56.656Z,11.91
2023-09-27T02:58:00.731Z,11.90
2023-09-27T03:03:04.973Z,11.89
2023-09-27T03:08:09.078Z,11.86
2023-09-27T03:13:13.148Z,11.86
2023-09-27T03:18:17.363Z,11.81
2023-09-27T03:23:21.553Z,11.74
2023-09-27T03:28:25.650Z,11.73
2023-09-27T03:33:29.877Z,11.67
2023-09-27T03:38:33.992Z,11.65
2023-09-27T03:43:38.163Z,11.58
2023-09-27T03:48:42.288Z,11.51
2023-09-27T03:53:46.492Z,11.55
2023-09-27T03:58:50.628Z,11.61
2023-09-27T04:03:54.890Z,11.60
2023-09-27T04:08:59.064Z,11.60
2023-09-27T04:19:07.273Z,11.56
2023-09-27T04:24:11.426Z,11.67
2023-09-27T04:29:15.638Z,11.62
2023-09-27T04:34:19.758Z,11.57
2023-09-27T04:39:23.949Z,11.51
2023-09-27T04:44:29.715Z,11.54
2023-09-27T04:49:32.268Z,11.50
2023-09-27T04:54:36.434Z,11.28
2023-09-27T04:59:40.554Z,11.21
2023-09-27T05:04:44.737Z,11.27
2023-09-27T05:09:48.874Z,11.23
2023-09-27T05:14:53.052Z,11.17
2023-09-27T05:19:57.315Z,11.24
2023-09-27T05:25:01.388Z,11.32
2023-09-27T05:30:05.534Z,11.27
2023-09-27T05:35:09.744Z,11.20
2023-09-27T05:40:13.959Z,11.08
2023-09-27T05:45:18.094Z,11.10
2023-09-27T05:50:22.269Z,11.13
2023-09-27T05:55:26.338Z,11.27
2023-09-27T06:00:30.500Z,11.26
2023-09-27T06:05:34.694Z,11.29
2023-09-27T06:10:38.847Z,11.29
2023-09-27T06:15:43.000Z,11.20
2023-09-27T06:20:47.159Z,11.23
2023-09-27T06:25:51.305Z,11.51
2023-09-27T06:30:55.534Z,11.80
2023-09-27T06:35:59.630Z,11.95
2023-09-27T06:41:03.872Z,12.16
2023-09-27T06:46:07.977Z,12.43
2023-09-27T06:51:12.114Z,12.86
2023-09-27T06:56:16.296Z,13.00
2023-09-27T07:01:20.498Z,13.14
2023-09-27T07:06:24.603Z,13.38
2023-09-27T07:11:28.801Z,13.51
2023-09-27T07:16:34.510Z,13.57
2023-09-27T07:21:37.108Z,13.73
2023-09-27T07:26:41.302Z,13.76
2023-09-27T07:31:45.414Z,13.82
2023-09-27T07:36:47.724Z,13.91
2023-09-27T07:41:51.903Z,14.03
2023-09-27T07:46:56.141Z,14.13
2023-09-27T07:52:00.372Z,14.21
2023-09-27T07:57:04.364Z,14.32
2023-09-27T08:02:08.534Z,14.54
2023-09-27T08:07:12.648Z,14.75
2023-09-27T08:12:16.844Z,15.12
2023-09-27T08:17:21.005Z,15.67
2023-09-27T08:22:25.127Z,16.08
2023-09-27T08:27:29.259Z,16.42
2023-09-27T08:32:33.492Z,16.89
2023-09-27T08:37:37.616Z,17.29
2023-09-27T08:42:41.767Z,17.70
2023-09-27T08:47:46.098Z,17.89
2023-09-27T08:52:50.142Z,18.04
2023-09-27T08:57:54.220Z,18.18
2023-09-27T09:02:59.636Z,18.19
2023-09-27T09:08:02.587Z,18.13
2023-09-27T09:13:06.696Z,18.12
2023-09-27T09:18:10.943Z,18.21
2023-09-27T09:23:15.271Z,18.36
2023-09-27T09:28:19.253Z,18.60
2023-09-27T09:33:23.566Z,18.73
2023-09-27T09:38:27.692Z,18.86
2023-09-27T09:43:31.686Z,19.13
2023-09-27T09:48:36.459Z,19.36
2023-09-27T09:53:40.249Z,19.51
2023-09-27T09:58:44.175Z,19.73
2023-09-27T10:03:48.432Z,19.87
2023-09-27T10:08:52.784Z,20.02
2023-09-27T10:13:56.659Z,20.18
2023-09-27T10:19:00.801Z,20.33
2023-09-27T10:24:04.952Z,20.57
2023-09-27T10:29:09.303Z,20.84
2023-09-27T10:34:13.271Z,21.11
2023-09-27T10:39:17.391Z,21.38
2023-09-27T10:44:21.620Z,21.58
2023-09-27T10:50:03.087Z,22.02
2023-09-27T10:55:07.238Z,22.21
2023-09-27T11:00:11.424Z,22.33
2023-09-27T11:05:15.602Z,22.47
2023-09-27T11:10:19.739Z,22.78
2023-09-27T11:15:23.919Z,23.04
2023-09-27T11:20:28.048Z,22.87
2023-09-27T11:25:32.194Z,23.00
2023-09-27T11:30:36.690Z,23.24
2023-09-27T11:35:40.562Z,23.41
2023-09-27T11:40:45.093Z,23.47
2023-09-27T11:45:49.262Z,23.58
2023-09-27T11:50:53.032Z,23.71
2023-09-27T11:55:57.139Z,23.82
2023-09-27T12:01:01.366Z,23.57
2023-09-27T12:06:05.776Z,23.50
2023-09-27T12:11:09.992Z,23.46
2023-09-27T12:16:13.989Z,23.63
2023-09-27T12:21:17.998Z,24.00
2023-09-27T12:26:20.252Z,24.23
2023-09-27T12:31:24.415Z,24.32
2023-09-27T12:36:28.525Z,24.32
2023-09-27T12:41:32.694Z,24.18
2023-09-27T12:46:36.876Z,24.44
2023-09-27T12:51:49.560Z,24.65
2023-09-27T12:56:45.171Z,24.81
2023-09-27T13:01:49.360Z,24.80
2023-09-27T13:06:53.500Z,24.67
2023-09-27T13:11:57.713Z,24.40
2023-09-27T13:17:01.792Z,24.45
2023-09-27T13:22:05.976Z,24.32
2023-09-27T13:27:10.121Z,24.35
2023-09-27T13:32:14.377Z,24.18
2023-09-27T13:37:18.449Z,24.01
2023-09-27T13:42:22.614Z,23.93
2023-09-27T13:47:26.821Z,23.82
2023-09-27T13:52:30.907Z,23.76
2023-09-27T13:57:35.103Z,23.68
2023-09-27T14:02:40.458Z,23.63
2023-09-27T14:07:41.592Z,23.56
2023-09-27T14:12:43.773Z,23.55
2023-09-27T14:17:48.010Z,23.49
2023-09-27T14:22:52.231Z,23.65
2023-09-27T14:27:56.250Z,23.78
2023-09-27T14:33:00.531Z,23.89
2023-09-27T14:38:04.605Z,23.87
2023-09-27T14:43:08.721Z,23.99
2023-09-27T14:48:12.946Z,23.98
2023-09-27T14:53:17.030Z,24.04
2023-09-27T14:58:21.185Z,24.14
2023-09-27T15:03:25.600Z,23.88
2023-09-27T15:08:29.536Z,24.23
2023-09-27T15:13:33.706Z,24.33
2023-09-27T15:18:37.896Z,24.24
2023-09-27T15:23:41.980Z,24.31
2023-09-27T15:28:46.247Z,24.23
2023-09-27T15:33:50.348Z,24.17
2023-09-27T15:38:54.483Z,24.10
2023-09-27T15:43:58.696Z,23.99
2023-09-27T15:49:02.859Z,23.77
2023-09-27T15:54:17.531Z,23.59
2023-09-27T15:59:09.217Z,23.44
2023-09-27T16:04:13.383Z,23.43
2023-09-27T16:09:17.525Z,23.48
2023-09-27T16:14:21.763Z,23.24
2023-09-27T16:19:25.880Z,23.31
2023-09-27T16:24:30.052Z,23.00
2023-09-27T16:29:34.219Z,22.68
2023-09-27T16:34:38.395Z,22.18
2023-09-27T16:39:42.550Z,21.63
2023-09-27T16:44:46.648Z,21.15
2023-09-27T16:49:50.800Z,20.82
2023-09-27T16:54:55.019Z,20.50
2023-09-27T16:59:59.136Z,20.30
2023-09-27T17:05:03.351Z,20.00
2023-09-27T17:10:08.869Z,19.79
2023-09-27T17:15:11.628Z,19.60
2023-09-27T17:20:15.829Z,19.15
2023-09-27T17:25:19.916Z,18.85
2023-09-27T17:30:24.110Z,18.70
2023-09-27T17:35:26.374Z,18.52
2023-09-27T17:40:30.567Z,18.36
2023-09-27T17:45:34.737Z,18.22
2023-09-27T17:50:38.890Z,18.09
2023-09-27T17:55:43.042Z,17.80
2023-09-27T18:00:47.176Z,17.63
2023-09-27T18:05:51.331Z,17.35
2023-09-27T18:10:55.631Z,17.21
2023-09-27T18:15:59.777Z,17.12
2023-09-27T18:21:03.864Z,16.94
2023-09-27T18:26:07.948Z,16.81
2023-09-27T18:31:12.231Z,16.74
2023-09-27T18:36:16.257Z,16.65
2023-09-27T18:41:20.450Z,16.51
2023-09-27T18:46:24.712Z,16.39
2023-09-27T18:51:28.779Z,16.22
2023-09-27T18:56:32.905Z,16.10
2023-09-27T19:01:37.240Z,15.93
2023-09-27T19:06:41.241Z,15.83
2023-09-27T19:11:45.391Z,15.69
2023-09-27T19:16:47.712Z,15.64
2023-09-27T19:21:49.966Z,15.70
2023-09-27T19:26:54.141Z,15.74
2023-09-27T19:31:58.369Z,15.69
2023-09-27T19:37:02.413Z,15.58
2023-09-27T19:42:06.616Z,15.59
2023-09-27T19:47:10.762Z,15.72
2023-09-27T19:52:14.901Z,15.77
2023-09-27T19:57:19.119Z,15.82
2023-09-27T20:02:23.332Z,15.95
2023-09-27T20:07:27.505Z,16.05
2023-09-27T20:12:31.565Z,16.31
2023-09-27T20:17:35.772Z,16.82
2023-09-27T20:22:39.922Z,16.90
2023-09-27T20:27:43.993Z,16.90
2023-09-27T20:32:48.181Z,17.12
2023-09-27T20:37:52.397Z,17.06
2023-09-27T20:42:54.593Z,16.95
2023-09-27T20:47:58.856Z,16.95
2023-09-27T20:53:02.969Z,16.82
2023-09-27T20:58:07.110Z,16.92
2023-09-27T21:03:09.445Z,17.10
2023-09-27T21:08:13.517Z,17.14
2023-09-27T21:13:17.687Z,17.03
2023-09-27T21:18:21.851Z,16.85
2023-09-27T21:23:25.982Z,16.80
2023-09-27T21:28:30.197Z,16.75
2023-09-27T21:33:34.310Z,16.67
2023-09-27T21:38:38.486Z,16.72
2023-09-27T21:43:42.673Z,16.76
2023-09-27T21:48:46.796Z,16.78
2023-09-27T21:53:51.009Z,16.93
2023-09-27T21:58:55.214Z,16.99
2023-09-27T22:03:59.341Z,16.98
2023-09-27T22:09:03.470Z,17.10
2023-09-27T22:14:07.633Z,17.13
2023-09-27T22:19:11.757Z,17.68
2023-09-27T22:24:15.973Z,17.98
2023-09-27T22:29:20.095Z,17.96
2023-09-27T22:34:25.191Z,17.99
2023-09-27T22:39:28.376Z,18.15
2023-09-27T22:44:30.674Z,18.34
2023-09-27T22:49:34.835Z,18.63
2023-09-27T22:54:39.010Z,18.78
2023-09-27T22:59:43.170Z,18.93
2023-09-27T23:04:47.358Z,19.19
2023-09-27T23:09:51.454Z,19.07
2023-09-27T23:14:55.620Z,19.14
2023-09-27T23:19:59.852Z,19.09
2023-09-27T23:25:03.932Z,19.22
2023-09-27T23:30:08.193Z,19.31
2023-09-27T23:35:12.248Z,19.43
2023-09-27T23:40:16.445Z,19.38
2023-09-27T23:45:20.637Z,19.30
2023-09-27T23:50:24.737Z,19.31
2023-09-27T23:55:28.875Z,19.28
